Time;durP1;ratioP1;P1;durP2;ratioP2;P2;SDS_P1;SDS_P2;PMS_P1;PMS_P2;Temp;Humidity;BMP_temperature;BMP_pressure;BME280_temperature;BME280_humidity;BME280_pressure;Samples;Min_cycle;Max_cycle;Signal;HPM_P1;HPM_P2
2022/06/09 00:01:43;;;;;;;;;;;;;;;;;;4947649;28;120659;-76
2022/06/09 00:04:09;;;;;;;;;;;;;;;;;;4950562;28;107093;-76
2022/06/09 00:06:36;;;;;;;;;;;;;;;;;;4949378;28;122496;-77
2022/06/09 00:09:02;;;;;;;;;;;;;;;;;;4945339;28;117372;-76
2022/06/09 00:11:28;;;;;;;;;;;;;;;;;;4947849;28;119380;-75
2022/06/09 00:13:54;;;;;;;;;;;;;;;;;;4947563;28;126194;-77
2022/06/09 00:16:21;;;;;;;;;;;;;;;;;;4948035;28;106954;-69
2022/06/09 00:18:47;;;;;;;;;;;;;;;;;;4947321;28;136668;-77
2022/06/09 00:21:13;;;;;;;;;;;;;;;;;;4947088;28;120352;-76
2022/06/09 00:23:40;;;;;;;;;;;;;;;;;;4961707;28;135626;-76
2022/06/09 00:26:06;;;;;;;;;;;;;;;;;;4952695;28;106386;-74
2022/06/09 00:28:32;;;;;;;;;;;;;;;;;;4947614;28;121851;-76
2022/06/09 00:30:59;;;;;;;;;;;;;;;;;;4945046;28;137837;-73
2022/06/09 00:33:25;;;;;;;;;;;;;;;;;;4947866;28;129250;-75
2022/06/09 00:35:51;;;;;;;;;;;;;;;;;;4947755;28;125269;-75
2022/06/09 00:38:18;;;;;;;;;;;;;;;;;;4946274;28;137114;-75
2022/06/09 00:40:44;;;;;;;;;;;;;;;;;;4946527;28;124508;-75
2022/06/09 00:43:10;;;;;;;;;;;;;;;;;;4944072;28;127322;-75
2022/06/09 00:45:37;;;;;;;;;;;;;;;;;;4962580;28;107627;-76
2022/06/09 00:48:03;;;;;;;;;;;;;;;;;;4952328;28;114303;-76
2022/06/09 00:50:29;;;;;;;;;;;;;;;;;;4947985;28;108002;-74
2022/06/09 00:52:55;;;;;;;;;;;;;;;;;;4947651;28;128736;-76
2022/06/09 00:55:22;;;;;;;;;;;;;;;;;;4948147;28;131439;-75
2022/06/09 00:57:48;;;;;;;;;;;;;;;;;;4945128;28;135536;-75
2022/06/09 01:00:15;;;;;;;;;;;;;;;;;;4946973;28;125155;-75
2022/06/09 01:02:41;;;;;;;;;;;;;;;;;;4949050;28;133195;-76
2022/06/09 01:05:08;;;;;;;;;;;;;;;;;;4951162;28;117553;-76
2022/06/09 01:07:34;;;;;;;;;;;;;;;;;;4966289;22;112088;-67
2022/06/09 01:10:01;;;;;;;;;;;;;;;;;;4969082;28;132963;-67
2022/06/09 01:12:28;;;;;;;;;;;;;;;;;;4961144;28;128768;-65
2022/06/09 01:14:54;;;;;;;;;;;;;;;;;;4965602;28;124437;-65
2022/06/09 01:17:20;;;;;;;;;;;;;;;;;;4966520;28;136324;-65
2022/06/09 01:19:46;;;;;;;;;;;;;;;;;;4954687;28;113481;-65
2022/06/09 01:22:13;;;;;;;;;;;;;;;;;;4966836;28;123940;-65
2022/06/09 01:24:39;;;;;;;;;;;;;;;;;;4955658;28;135715;-66
2022/06/09 01:27:05;;;;;;;;;;;;;;;;;;4966901;28;124474;-66
2022/06/09 01:29:32;;;;;;;;;;;;;;;;;;4962274;28;138897;-66
2022/06/09 01:31:59;;;;;;;;;;;;;;;;;;4953917;28;127418;-65
2022/06/09 01:34:25;;;;;;;;;;;;;;;;;;4962777;28;126253;-66
2022/06/09 01:36:51;;;;;;;;;;;;;;;;;;4966151;28;120982;-65
2022/06/09 01:39:18;;;;;;;;;;;;;;;;;;4963628;28;129309;-66
2022/06/09 01:41:44;;;;;;;;;;;;;;;;;;4964272;28;107087;-66
2022/06/09 01:44:10;;;;;;;;;;;;;;;;;;4962886;28;118094;-66
2022/06/09 01:46:37;;;;;;;;;;;;;;;;;;4966241;28;107286;-66
2022/06/09 01:49:03;;;;;;;;;;;;;;;;;;4962642;28;133514;-66
2022/06/09 01:51:29;;;;;;;;;;;;;;;;;;4968002;28;136100;-66
2022/06/09 01:53:55;;;;;;;;;;;;;;;;;;4964607;28;135028;-66
2022/06/09 01:56:22;;;;;;;;;;;;;;;;;;4966144;28;133126;-66
2022/06/09 01:58:48;;;;;;;;;;;;;;;;;;4962952;28;118504;-66
2022/06/09 02:01:14;;;;;;;;;;;;;;;;;;4962715;28;127079;-65
2022/06/09 02:03:41;;;;;;;;;;;;;;;;;;4961606;28;136315;-65
2022/06/09 02:06:07;;;;;;;;;;;;;;;;;;4976834;28;129582;-66
2022/06/09 02:08:35;;;;;;;;;;;;;;;;;;4959234;28;136364;-66
2022/06/09 02:11:01;;;;;;;;;;;;;;;;;;4954854;28;131820;-65
2022/06/09 02:13:27;;;;;;;;;;;;;;;;;;4949166;28;131953;-65
2022/06/09 02:15:54;;;;;;;;;;;;;;;;;;4960819;28;128502;-65
2022/06/09 02:18:20;;;;;;;;;;;;;;;;;;4964497;28;130099;-66
2022/06/09 02:20:46;;;;;;;;;;;;;;;;;;4960130;28;110331;-66
2022/06/09 02:23:13;;;;;;;;;;;;;;;;;;4963873;28;138210;-66
2022/06/09 02:25:39;;;;;;;;;;;;;;;;;;4968585;28;122470;-66
2022/06/09 02:28:05;;;;;;;;;;;;;;;;;;4964773;28;130639;-66
2022/06/09 02:30:31;;;;;;;;;;;;;;;;;;4968075;28;130101;-66
2022/06/09 02:33:14;;;;;;;;;;;;;;;;;;4963980;28;106483;-66
2022/06/09 02:35:44;;;;;;;;;;;;;;;;;;4959891;28;135285;-66
2022/06/09 02:38:11;;;;;;;;;;;;;;;;;;4966819;28;128023;-66
2022/06/09 02:40:37;;;;;;;;;;;;;;;;;;4961686;28;135308;-66
2022/06/09 02:43:03;;;;;;;;;;;;;;;;;;4968312;28;135341;-65
2022/06/09 02:45:33;;;;;;;;;;;;;;;;;;4958135;28;126671;-65
2022/06/09 02:47:59;;;;;;;;;;;;;;;;;;4984146;28;106468;-65
2022/06/09 02:50:26;;;;;;;;;;;;;;;;;;4957166;28;125731;-65
2022/06/09 02:52:52;;;;;;;;;;;;;;;;;;4967629;28;107275;-65
2022/06/09 02:55:18;;;;;;;;;;;;;;;;;;4963786;28;126797;-65
2022/06/09 02:57:45;;;;;;;;;;;;;;;;;;4969630;28;126245;-65
2022/06/09 03:00:12;;;;;;;;;;;;;;;;;;4967591;28;133897;-65
2022/06/09 03:02:38;;;;;;;;;;;;;;;;;;4963965;28;132248;-66
2022/06/09 03:05:04;;;;;;;;;;;;;;;;;;4969535;28;116917;-66
2022/06/09 03:07:31;;;;;;;;;;;;;;;;;;4962779;28;135886;-65
2022/06/09 03:09:57;;;;;;;;;;;;;;;;;;4967111;28;120842;-65
2022/06/09 03:12:23;;;;;;;;;;;;;;;;;;4963022;28;106649;-65
2022/06/09 03:14:50;;;;;;;;;;;;;;;;;;4959513;28;133575;-65
2022/06/09 03:17:16;;;;;;;;;;;;;;;;;;4968049;28;134993;-65
2022/06/09 03:19:42;;;;;;;;;;;;;;;;;;4971592;28;116494;-65
2022/06/09 03:22:09;;;;;;;;;;;;;;;;;;4964809;28;124832;-66
2022/06/09 03:24:35;;;;;;;;;;;;;;;;;;4966402;28;108799;-66
2022/06/09 03:27:01;;;;;;;;;;;;;;;;;;4961292;28;135628;-65
2022/06/09 03:29:27;;;;;;;;;;;;;;;;;;4968582;28;107500;-65
2022/06/09 03:31:54;;;;;;;;;;;;;;;;;;4960894;28;122205;-65
2022/06/09 03:34:20;;;;;;;;;;;;;;;;;;4967910;28;106884;-65
2022/06/09 03:36:46;;;;;;;;;;;;;;;;;;4959022;28;135064;-65
2022/06/09 03:39:13;;;;;;;;;;;;;;;;;;4968883;28;116733;-65
2022/06/09 03:41:39;;;;;;;;;;;;;;;;;;4968882;28;128493;-66
2022/06/09 03:44:05;;;;;;;;;;;;;;;;;;4964600;28;127286;-66
2022/06/09 03:46:32;;;;;;;;;;;;;;;;;;4969152;28;133142;-65
2022/06/09 03:48:58;;;;;;;;;;;;;;;;;;4966249;28;129133;-65
2022/06/09 03:51:24;;;;;;;;;;;;;;;;;;4961544;28;106459;-65
2022/06/09 03:53:51;;;;;;;;;;;;;;;;;;4965967;28;120088;-65
2022/06/09 03:56:17;;;;;;;;;;;;;;;;;;4978032;28;126514;-65
2022/06/09 03:58:43;;;;;;;;;;;;;;;;;;4960257;28;126411;-65
2022/06/09 04:01:13;;;;;;;;;;;;;;;;;;4972071;28;128138;-65
2022/06/09 04:03:39;;;;;;;;;;;;;;;;;;4963189;28;128551;-66
2022/06/09 04:06:06;;;;;;;;;;;;;;;;;;4968598;28;130654;-66
2022/06/09 04:08:33;;;;;;;;;;;;;;;;;;4963055;28;132513;-65
2022/06/09 04:11:00;;;;;;;;;;;;;;;;;;4966158;28;123580;-65
2022/06/09 04:13:26;;;;;;;;;;;;;;;;;;4966422;28;116571;-65
2022/06/09 04:15:52;;;;;;;;;;;;;;;;;;4965786;28;124127;-65
2022/06/09 04:18:18;;;;;;;;;;;;;;;;;;4963319;28;120990;-65
2022/06/09 04:20:45;;;;;;;;;;;;;;;;;;4968151;28;129170;-65
2022/06/09 04:23:11;;;;;;;;;;;;;;;;;;4968707;28;135365;-66
2022/06/09 04:25:38;;;;;;;;;;;;;;;;;;4963470;28;116735;-65
2022/06/09 04:28:04;;;;;;;;;;;;;;;;;;4961508;28;130614;-65
2022/06/09 04:30:30;;;;;;;;;;;;;;;;;;4962411;28;119456;-65
2022/06/09 04:32:57;;;;;;;;;;;;;;;;;;4960576;28;136905;-65
2022/06/09 04:35:23;;;;;;;;;;;;;;;;;;4967817;28;121834;-66
2022/06/09 04:38:03;;;;;;;;;;;;;;;;;;4960794;28;119745;-65
2022/06/09 04:40:29;;;;;;;;;;;;;;;;;;4959724;28;107358;-65
2022/06/09 04:42:55;;;;;;;;;;;;;;;;;;4962127;28;130348;-65
2022/06/09 04:45:22;;;;;;;;;;;;;;;;;;4967899;28;128228;-65
2022/06/09 04:47:48;;;;;;;;;;;;;;;;;;4965917;28;128730;-66
2022/06/09 04:50:16;;;;;;;;;;;;;;;;;;4961375;28;128401;-65
2022/06/09 04:52:42;;;;;;;;;;;;;;;;;;4967446;28;133852;-66
2022/06/09 04:55:08;;;;;;;;;;;;;;;;;;4964033;28;116594;-66
2022/06/09 04:57:35;;;;;;;;;;;;;;;;;;4959233;28;116382;-66
2022/06/09 05:00:01;;;;;;;;;;;;;;;;;;4964623;28;135223;-65
2022/06/09 05:02:28;;;;;;;;;;;;;;;;;;4956560;28;136138;-65
2022/06/09 05:04:54;;;;;;;;;;;;;;;;;;4967343;28;106605;-66
2022/06/09 05:07:20;;;;;;;;;;;;;;;;;;4964803;28;137263;-65
2022/06/09 05:09:47;;;;;;;;;;;;;;;;;;4961798;28;127116;-66
2022/06/09 05:12:13;;;;;;;;;;;;;;;;;;4958322;28;120092;-66
2022/06/09 05:14:39;;;;;;;;;;;;;;;;;;4963902;28;136238;-66
2022/06/09 05:17:06;;;;;;;;;;;;;;;;;;4957802;28;107072;-66
2022/06/09 05:19:32;;;;;;;;;;;;;;;;;;4958525;28;137938;-66
2022/06/09 05:21:58;;;;;;;;;;;;;;;;;;4964161;28;132824;-66
2022/06/09 05:24:25;;;;;;;;;;;;;;;;;;4960481;28;115014;-66
2022/06/09 05:26:51;;;;;;;;;;;;;;;;;;4955399;28;135415;-66
2022/06/09 05:29:17;;;;;;;;;;;;;;;;;;4957563;28;135545;-65
2022/06/09 05:31:43;;;;;;;;;;;;;;;;;;4953895;28;130963;-65
2022/06/09 05:34:10;;;;;;;;;;;;;;;;;;4966287;28;136495;-66
2022/06/09 05:36:36;;;;;;;;;;;;;;;;;;4957214;28;107761;-66
2022/06/09 05:44:50;;;;;;;;;;;;;;;;;;4968432;28;108085;-65
2022/06/09 05:47:19;;;;;;;;;;;;;;;;;;4960237;28;137850;-65
2022/06/09 05:49:47;;;;;;;;;;;;;;;;;;4965659;28;130990;-66
2022/06/09 05:52:13;;;;;;;;;;;;;;;;;;4961227;28;105735;-66
2022/06/09 05:54:39;;;;;;;;;;;;;;;;;;4955947;28;137645;-66
2022/06/09 05:57:05;;;;;;;;;;;;;;;;;;4961658;28;129070;-66
2022/06/09 05:59:32;;;;;;;;;;;;;;;;;;4966951;28;134225;-66
2022/06/09 06:01:58;;;;;;;;;;;;;;;;;;4958902;28;137118;-67
2022/06/09 06:04:24;;;;;;;;;;;;;;;;;;4960258;28;127437;-66
2022/06/09 06:06:51;;;;;;;;;;;;;;;;;;4955267;28;127892;-64
2022/06/09 06:09:17;;;;;;;;;;;;;;;;;;4960860;28;137602;-67
2022/06/09 06:11:43;;;;;;;;;;;;;;;;;;4962553;28;125036;-65
2022/06/09 06:14:10;;;;;;;;;;;;;;;;;;4964878;28;123228;-65
2022/06/09 06:16:36;;;;;;;;;;;;;;;;;;4963723;28;111324;-65
2022/06/09 06:19:02;;;;;;;;;;;;;;;;;;4966480;28;124477;-65
2022/06/09 06:21:29;;;;;;;;;;;;;;;;;;4962796;28;116420;-65
2022/06/09 06:23:55;;;;;;;;;;;;;;;;;;4963040;28;123921;-65
2022/06/09 06:26:21;;;;;;;;;;;;;;;;;;4961856;28;132431;-66
2022/06/09 06:28:48;;;;;;;;;;;;;;;;;;4965729;28;133319;-66
2022/06/09 06:31:14;;;;;;;;;;;;;;;;;;4957428;28;106749;-64
2022/06/09 06:33:41;;;;;;;;;;;;;;;;;;4968194;28;126538;-65
2022/06/09 06:36:07;;;;;;;;;;;;;;;;;;4950533;28;120903;-65
2022/06/09 06:38:33;;;;;;;;;;;;;;;;;;4969198;28;130870;-65
2022/06/09 06:41:00;;;;;;;;;;;;;;;;;;4961276;28;138531;-64
2022/06/09 06:43:26;;;;;;;;;;;;;;;;;;4961140;28;106787;-67
2022/06/09 06:45:52;;;;;;;;;;;;;;;;;;4962869;28;133691;-63
2022/06/09 06:48:19;;;;;;;;;;;;;;;;;;4963359;28;136759;-64
2022/06/09 06:50:45;;;;;;;;;;;;;;;;;;4958803;28;111709;-64
2022/06/09 06:53:12;;;;;;;;;;;;;;;;;;4955399;28;136781;-64
2022/06/09 06:55:38;;;;;;;;;;;;;;;;;;4967485;28;133010;-63
2022/06/09 06:58:04;;;;;;;;;;;;;;;;;;4954202;28;124565;-64
2022/06/09 07:00:31;;;;;;;;;;;;;;;;;;4955204;28;131196;-63
2022/06/09 07:02:57;;;;;;;;;;;;;;;;;;4964097;28;123259;-64
2022/06/09 07:05:52;;;;;;;;;;;;;;;;;;4962491;28;124982;-64
2022/06/09 07:08:19;;;;;;;;;;;;;;;;;;4961681;28;133078;-65
2022/06/09 07:10:45;;;;;;;;;;;;;;;;;;4966924;28;128085;-64
2022/06/09 07:13:11;;;;;;;;;;;;;;;;;;4966181;28;134394;-62
2022/06/09 07:15:38;;;;;;;;;;;;;;;;;;4962819;28;123274;-63
2022/06/09 07:18:04;;;;;;;;;;;;;;;;;;4958471;28;107573;-65
2022/06/09 07:20:30;;;;;;;;;;;;;;;;;;4963487;28;130335;-63
2022/06/09 07:22:56;;;;;;;;;;;;;;;;;;4961822;28;119718;-63
2022/06/09 07:25:23;;;;;;;;;;;;;;;;;;4966910;28;108525;-66
2022/06/09 07:27:51;;;;;;;;;;;;;;;;;;4950563;28;126672;-66
2022/06/09 07:30:17;;;;;;;;;;;;;;;;;;4958307;28;109169;-63
2022/06/09 07:32:44;;;;;;;;;;;;;;;;;;4969686;28;121830;-65
2022/06/09 07:35:10;;;;;;;;;;;;;;;;;;4959529;28;115299;-64
2022/06/09 07:37:36;;;;;;;;;;;;;;;;;;4954055;28;113247;-64
2022/06/09 07:40:04;;;;;;;;;;;;;;;;;;4965751;28;112886;-64
2022/06/09 07:42:30;;;;;;;;;;;;;;;;;;4965357;28;129056;-64
2022/06/09 07:44:57;;;;;;;;;;;;;;;;;;4958382;28;124709;-64
2022/06/09 07:47:24;;;;;;;;;;;;;;;;;;4963590;28;136703;-66
2022/06/09 07:49:51;;;;;;;;;;;;;;;;;;4964198;28;126318;-65
2022/06/09 07:52:18;;;;;;;;;;;;;;;;;;4957084;28;135641;-64
2022/06/09 07:54:44;;;;;;;;;;;;;;;;;;4960029;28;137007;-65
2022/06/09 07:57:11;;;;;;;;;;;;;;;;;;4952681;28;121007;-65
2022/06/09 07:59:37;;;;;;;;;;;;;;;;;;4957264;28;137413;-65
2022/06/09 08:02:04;;;;;;;;;;;;;;;;;;4969868;28;107115;-66
2022/06/09 08:04:34;;;;;;;;;;;;;;;;;;4962083;28;134351;-65
2022/06/09 08:07:02;;;;;;;;;;;;;;;;;;4965615;28;127716;-66
2022/06/09 08:09:29;;;;;;;;;;;;;;;;;;4957278;28;107212;-66
2022/06/09 08:11:55;;;;;;;;;;;;;;;;;;4955983;28;124179;-65
2022/06/09 08:14:22;;;;;;;;;;;;;;;;;;4965453;28;128216;-65
2022/06/09 08:16:48;;;;;;;;;;;;;;;;;;4967105;28;110063;-65
2022/06/09 08:19:14;;;;;;;;;;;;;;;;;;4965144;28;124790;-65
2022/06/09 08:21:41;;;;;;;;;;;;;;;;;;4956533;28;131003;-65
2022/06/09 08:24:19;;;;;;;;;;;;;;;;;;4974666;28;126819;-65
2022/06/09 08:26:46;;;;;;;;;;;;;;;;;;4961851;28;112970;-65
2022/06/09 08:29:12;;;;;;;;;;;;;;;;;;4964322;28;128092;-64
2022/06/09 08:31:39;;;;;;;;;;;;;;;;;;4966918;28;134289;-65
2022/06/09 08:34:05;;;;;;;;;;;;;;;;;;4970924;28;134967;-65
2022/06/09 08:36:31;;;;;;;;;;;;;;;;;;4957072;28;127862;-67
2022/06/09 08:38:58;;;;;;;;;;;;;;;;;;4976893;28;132033;-63
2022/06/09 08:41:27;;;;;;;;;;;;;;;;;;4954510;28;130774;-63
2022/06/09 08:43:53;;;;;;;;;;;;;;;;;;4968279;28;121201;-63
2022/06/09 08:46:20;;;;;;;;;;;;;;;;;;4961028;28;130423;-64
2022/06/09 08:48:46;;;;;;;;;;;;;;;;;;4961912;28;127935;-63
2022/06/09 08:51:13;;;;;;;;;;;;;;;;;;4960060;28;130454;-63
2022/06/09 08:53:39;;;;;;;;;;;;;;;;;;4959030;28;106725;-64
2022/06/09 08:56:06;;;;;;;;;;;;;;;;;;4962202;28;107220;-66
2022/06/09 08:58:32;;;;;;;;;;;;;;;;;;4964568;28;129866;-64
2022/06/09 09:00:59;;;;;;;;;;;;;;;;;;4965955;28;108528;-64
2022/06/09 09:03:28;;;;;;;;;;;;;;;;;;4963732;28;121092;-64
2022/06/09 09:05:54;;;;;;;;;;;;;;;;;;4970583;28;136583;-64
2022/06/09 09:08:20;;;;;;;;;;;;;;;;;;4958264;28;129308;-64
2022/06/09 09:10:52;;;;;;;;;;;;;;;;;;4965736;28;137391;-64
2022/06/09 09:13:19;;;;;;;;;;;;;;;;;;4964553;28;136469;-64
2022/06/09 09:15:45;;;;;;;;;;;;;;;;;;4962646;28;121464;-64
2022/06/09 09:18:11;;;;;;;;;;;;;;;;;;4964508;28;108749;-64
2022/06/09 09:20:38;;;;;;;;;;;;;;;;;;4965212;28;137648;-64
2022/06/09 09:23:04;;;;;;;;;;;;;;;;;;4963501;28;107515;-64
2022/06/09 09:25:31;;;;;;;;;;;;;;;;;;4956569;28;127222;-63
2022/06/09 09:27:57;;;;;;;;;;;;;;;;;;4968057;28;130480;-63
2022/06/09 09:30:23;;;;;;;;;;;;;;;;;;4954790;28;134466;-63
2022/06/09 09:32:49;;;;;;;;;;;;;;;;;;4962408;28;136124;-64
2022/06/09 09:35:16;;;;;;;;;;;;;;;;;;4965873;28;111200;-63
2022/06/09 09:37:44;;;;;;;;;;;;;;;;;;4965951;28;134611;-65
2022/06/09 09:40:10;;;;;;;;;;;;;;;;;;4959629;28;132539;-65
2022/06/09 09:42:38;;;;;;;;;;;;;;;;;;4957548;28;106346;-67
2022/06/09 09:45:05;;;;;;;;;;;;;;;;;;4953881;28;122486;-68
2022/06/09 09:47:31;;;;;;;;;;;;;;;;;;4955354;28;129180;-64
2022/06/09 09:49:58;;;;;;;;;;;;;;;;;;4967699;28;120471;-63
2022/06/09 09:52:24;;;;;;;;;;;;;;;;;;4958826;28;130921;-63
2022/06/09 09:54:50;;;;;;;;;;;;;;;;;;4963026;28;122792;-62
2022/06/09 09:57:16;;;;;;;;;;;;;;;;;;4956861;28;130921;-64
2022/06/09 09:59:44;;;;;;;;;;;;;;;;;;4961083;28;123203;-62
2022/06/09 10:08:36;;;;;;;;;;;;;;;;;;4957275;28;108703;-63
2022/06/09 10:14:05;;;;;;;;;;;;;;;;;;4963321;28;107254;-63
2022/06/09 10:16:31;;;;;;;;;;;;;;;;;;4966512;28;125620;-62
2022/06/09 10:19:16;;;;;;;;;;;;;;;;;;4965503;28;106503;-62
2022/06/09 10:22:00;;;;;;;;;;;;;;;;;;4967193;28;119399;-62
2022/06/09 10:24:27;;;;;;;;;;;;;;;;;;4960709;28;107382;-63
2022/06/09 10:27:07;;;;;;;;;;;;;;;;;;4964699;28;132446;-63
2022/06/09 10:29:36;;;;;;;;;;;;;;;;;;4960012;28;115973;-66
2022/06/09 10:32:02;;;;;;;;;;;;;;;;;;4959426;28;118354;-65
2022/06/09 10:34:29;;;;;;;;;;;;;;;;;;4982714;28;137176;-63
2022/06/09 10:36:55;;;;;;;;;;;;;;;;;;4961940;28;129394;-65
2022/06/09 10:39:21;;;;;;;;;;;;;;;;;;4962433;28;107398;-65
2022/06/09 10:41:48;;;;;;;;;;;;;;;;;;4955610;28;136340;-63
2022/06/09 10:44:14;;;;;;;;;;;;;;;;;;4957768;28;127697;-64
2022/06/09 10:46:40;;;;;;;;;;;;;;;;;;4962271;28;122725;-63
2022/06/09 10:57:27;;;;;;;;;;;;;;;;;;4958037;28;137304;-63
2022/06/09 10:59:54;;;;;;;;;;;;;;;;;;4960983;28;137160;-63
2022/06/09 11:02:21;;;;;;;;;;;;;;;;;;4956712;28;137761;-63
2022/06/09 11:04:47;;;;;;;;;;;;;;;;;;4962452;28;125714;-64
2022/06/09 11:07:13;;;;;;;;;;;;;;;;;;4958320;28;136941;-63
2022/06/09 11:09:40;;;;;;;;;;;;;;;;;;4966495;28;136503;-63
2022/06/09 11:12:06;;;;;;;;;;;;;;;;;;4957733;28;111874;-63
2022/06/09 11:14:32;;;;;;;;;;;;;;;;;;4964717;28;136766;-63
2022/06/09 11:16:59;;;;;;;;;;;;;;;;;;4963987;28;131402;-63
2022/06/09 11:19:25;;;;;;;;;;;;;;;;;;4957547;28;125474;-64
2022/06/09 11:21:51;;;;;;;;;;;;;;;;;;4965708;28;121751;-63
2022/06/09 11:24:18;;;;;;;;;;;;;;;;;;4959528;28;127692;-63
2022/06/09 11:26:47;;;;;;;;;;;;;;;;;;4964287;28;125691;-63
2022/06/09 11:29:14;;;;;;;;;;;;;;;;;;4958860;28;129104;-63
2022/06/09 11:31:40;;;;;;;;;;;;;;;;;;4965979;28;106557;-64
2022/06/09 11:34:06;;;;;;;;;;;;;;;;;;4963100;28;137789;-64
2022/06/09 11:36:33;;;;;;;;;;;;;;;;;;4964840;28;131512;-63
2022/06/09 11:38:59;;;;;;;;;;;;;;;;;;4966197;28;131049;-64
2022/06/09 11:41:25;;;;;;;;;;;;;;;;;;4969798;28;109683;-63
2022/06/09 11:44:09;;;;;;;;;;;;;;;;;;4963505;28;128823;-63
2022/06/09 11:46:35;;;;;;;;;;;;;;;;;;4964093;28;111831;-62
2022/06/09 11:49:02;;;;;;;;;;;;;;;;;;4971632;28;130570;-62
2022/06/09 11:51:28;;;;;;;;;;;;;;;;;;4960074;28;131304;-64
2022/06/09 11:53:54;;;;;;;;;;;;;;;;;;4965255;28;108474;-62
2022/06/09 11:56:33;;;;;;;;;;;;;;;;;;4959722;28;129518;-65
2022/06/09 11:58:59;;;;;;;;;;;;;;;;;;4966038;28;127726;-62
2022/06/09 12:01:25;;;;;;;;;;;;;;;;;;4966120;28;136838;-63
2022/06/09 12:03:53;;;;;;;;;;;;;;;;;;4967461;28;137904;-63
2022/06/09 12:06:19;;;;;;;;;;;;;;;;;;4966427;28;135422;-63
2022/06/09 12:08:46;;;;;;;;;;;;;;;;;;4966693;28;140256;-63
2022/06/09 12:11:14;;;;;;;;;;;;;;;;;;4957829;28;130340;-63
2022/06/09 12:13:40;;;;;;;;;;;;;;;;;;4964394;28;122814;-63
2022/06/09 12:16:08;;;;;;;;;;;;;;;;;;4964358;28;115128;-63
2022/06/09 12:18:34;;;;;;;;;;;;;;;;;;4962936;28;109488;-66
2022/06/09 12:21:00;;;;;;;;;;;;;;;;;;4965032;28;135636;-63
2022/06/09 12:23:27;;;;;;;;;;;;;;;;;;4965813;28;128390;-63
2022/06/09 12:25:53;;;;;;;;;;;;;;;;;;4964943;28;135652;-63
2022/06/09 12:28:20;;;;;;;;;;;;;;;;;;4970612;28;127951;-63
2022/06/09 12:30:47;;;;;;;;;;;;;;;;;;4958354;28;108866;-63
2022/06/09 12:33:13;;;;;;;;;;;;;;;;;;4964340;28;138105;-63
2022/06/09 12:35:40;;;;;;;;;;;;;;;;;;4967058;28;130856;-62
2022/06/09 12:38:06;;;;;;;;;;;;;;;;;;4961663;28;122874;-62
2022/06/09 12:40:33;;;;;;;;;;;;;;;;;;4961039;28;137969;-63
2022/06/09 12:42:59;;;;;;;;;;;;;;;;;;4967830;28;107691;-63
2022/06/09 12:45:25;;;;;;;;;;;;;;;;;;4962642;28;106843;-62
2022/06/09 12:47:52;;;;;;;;;;;;;;;;;;4966125;28;132564;-63
2022/06/09 12:50:18;;;;;;;;;;;;;;;;;;4965710;28;114300;-63
2022/06/09 12:52:45;;;;;;;;;;;;;;;;;;4959864;28;134549;-66
2022/06/09 12:55:12;;;;;;;;;;;;;;;;;;4962785;28;133508;-63
2022/06/09 12:57:38;;;;;;;;;;;;;;;;;;4960608;28;130394;-64
2022/06/09 13:00:05;;;;;;;;;;;;;;;;;;4961731;28;127696;-68
2022/06/09 13:02:31;;;;;;;;;;;;;;;;;;4954290;28;107714;-66
2022/06/09 13:04:57;;;;;;;;;;;;;;;;;;4960806;28;127263;-66
2022/06/09 13:07:24;;;;;;;;;;;;;;;;;;4964058;28;126690;-66
2022/06/09 13:09:50;;;;;;;;;;;;;;;;;;4961115;28;128547;-65
2022/06/09 13:15:01;;;;;;;;;;;;;;;;;;4959597;28;137354;-65
2022/06/09 13:17:28;;;;;;;;;;;;;;;;;;4962282;28;123353;-66
2022/06/09 13:19:56;;;;;;;;;;;;;;;;;;4961082;28;136391;-65
2022/06/09 13:22:22;;;;;;;;;;;;;;;;;;4956325;28;137046;-66
2022/06/09 13:24:49;;;;;;;;;;;;;;;;;;4957771;28;129538;-65
2022/06/09 13:27:15;;;;;;;;;;;;;;;;;;4947037;28;136975;-66
2022/06/09 13:29:41;;;;;;;;;;;;;;;;;;4960759;28;114658;-66
2022/06/09 13:32:08;;;;;;;;;;;;;;;;;;4980900;28;137008;-66
2022/06/09 13:34:35;;;;;;;;;;;;;;;;;;4960551;28;138045;-66
2022/06/09 13:37:01;;;;;;;;;;;;;;;;;;4965597;28;128645;-65
2022/06/09 13:39:27;;;;;;;;;;;;;;;;;;4959542;28;135833;-66
2022/06/09 13:41:54;;;;;;;;;;;;;;;;;;4957428;28;137772;-66
2022/06/09 13:44:20;;;;;;;;;;;;;;;;;;4960758;28;129120;-65
2022/06/09 13:46:46;;;;;;;;;;;;;;;;;;4966297;28;135585;-66
2022/06/09 13:49:13;;;;;;;;;;;;;;;;;;4954069;28;134505;-66
2022/06/09 13:51:43;;;;;;;;;;;;;;;;;;4969000;28;129523;-65
2022/06/09 13:54:10;;;;;;;;;;;;;;;;;;4962879;28;137256;-66
2022/06/09 13:56:36;;;;;;;;;;;;;;;;;;4960067;28;125636;-66
2022/06/09 13:59:02;;;;;;;;;;;;;;;;;;4964112;28;137184;-65
2022/06/09 14:01:29;;;;;;;;;;;;;;;;;;4954277;28;125207;-67
2022/06/09 14:03:59;;;;;;;;;;;;;;;;;;4964619;28;106492;-66
2022/06/09 14:06:25;;;;;;;;;;;;;;;;;;4961104;28;126129;-67
2022/06/09 14:08:51;;;;;;;;;;;;;;;;;;4964503;28;136162;-66
2022/06/09 14:11:18;;;;;;;;;;;;;;;;;;4963343;28;124056;-66
2022/06/09 14:13:44;;;;;;;;;;;;;;;;;;4957031;28;136122;-66
2022/06/09 14:16:10;;;;;;;;;;;;;;;;;;4960815;28;129084;-67
2022/06/09 14:18:37;;;;;;;;;;;;;;;;;;4962238;28;134358;-66
2022/06/09 14:21:04;;;;;;;;;;;;;;;;;;4959739;28;112955;-66
2022/06/09 14:23:34;;;;;;;;;;;;;;;;;;4963550;28;129534;-67
2022/06/09 14:26:00;;;;;;;;;;;;;;;;;;4963114;28;137193;-67
2022/06/09 14:28:26;;;;;;;;;;;;;;;;;;4961837;28;125466;-67
2022/06/09 14:30:53;;;;;;;;;;;;;;;;;;4960149;28;129912;-66
2022/06/09 14:33:19;;;;;;;;;;;;;;;;;;4967401;28;137072;-65
2022/06/09 14:35:45;;;;;;;;;;;;;;;;;;4959797;28;107060;-66
2022/06/09 14:38:12;;;;;;;;;;;;;;;;;;4962294;28;136963;-67
2022/06/09 14:40:38;;;;;;;;;;;;;;;;;;4955958;28;137994;-67
2022/06/09 14:43:05;;;;;;;;;;;;;;;;;;4961817;28;115776;-68
2022/06/09 14:45:31;;;;;;;;;;;;;;;;;;4963044;28;115991;-66
2022/06/09 14:47:58;;;;;;;;;;;;;;;;;;4960755;28;116880;-67
2022/06/09 14:50:24;;;;;;;;;;;;;;;;;;4959555;28;129152;-68
2022/06/09 14:52:56;;;;;;;;;;;;;;;;;;4965941;28;123834;-67
2022/06/09 14:55:22;;;;;;;;;;;;;;;;;;4950174;28;138824;-67
2022/06/09 14:57:49;;;;;;;;;;;;;;;;;;4961591;28;139621;-67
2022/06/09 15:00:15;;;;;;;;;;;;;;;;;;4960939;28;132957;-67
2022/06/09 15:02:42;;;;;;;;;;;;;;;;;;4955218;28;107092;-67
2022/06/09 15:05:08;;;;;;;;;;;;;;;;;;4957968;28;135516;-67
2022/06/09 15:07:34;;;;;;;;;;;;;;;;;;4958480;28;136831;-67
2022/06/09 15:10:00;;;;;;;;;;;;;;;;;;4964743;28;111695;-67
2022/06/09 15:12:27;;;;;;;;;;;;;;;;;;4964021;28;136231;-67
2022/06/09 15:14:53;;;;;;;;;;;;;;;;;;4955683;28;137491;-67
2022/06/09 15:17:19;;;;;;;;;;;;;;;;;;4953844;28;129559;-67
2022/06/09 15:19:46;;;;;;;;;;;;;;;;;;4961296;28;135863;-67
2022/06/09 15:22:18;;;;;;;;;;;;;;;;;;4965068;28;107062;-67
2022/06/09 15:24:45;;;;;;;;;;;;;;;;;;4952757;28;129252;-67
2022/06/09 15:27:11;;;;;;;;;;;;;;;;;;4960415;28;135941;-67
2022/06/09 15:29:37;;;;;;;;;;;;;;;;;;4962299;28;125331;-67
2022/06/09 15:32:04;;;;;;;;;;;;;;;;;;4964929;28;137045;-68
2022/06/09 15:34:37;;;;;;;;;;;;;;;;;;4960283;28;137967;-67
2022/06/09 15:37:03;;;;;;;;;;;;;;;;;;4955012;28;129353;-67
2022/06/09 15:39:30;;;;;;;;;;;;;;;;;;4967120;28;136886;-67
2022/06/09 15:41:56;;;;;;;;;;;;;;;;;;4962336;28;129646;-67
2022/06/09 15:44:22;;;;;;;;;;;;;;;;;;4963851;28;121866;-67
2022/06/09 15:46:49;;;;;;;;;;;;;;;;;;4962783;28;138518;-65
2022/06/09 15:49:27;;;;;;;;;;;;;;;;;;4965661;28;113714;-67
2022/06/09 15:51:53;;;;;;;;;;;;;;;;;;4961996;28;135040;-67
2022/06/09 15:54:19;;;;;;;;;;;;;;;;;;4962899;28;138399;-67
2022/06/09 15:56:46;;;;;;;;;;;;;;;;;;4959287;28;131121;-67
2022/06/09 15:59:12;;;;;;;;;;;;;;;;;;4968303;28;133533;-66
2022/06/09 16:01:38;;;;;;;;;;;;;;;;;;4969941;28;136207;-66
2022/06/09 16:04:05;;;;;;;;;;;;;;;;;;4964634;28;134697;-67
2022/06/09 16:06:31;;;;;;;;;;;;;;;;;;4966413;28;137529;-66
2022/06/09 16:09:02;;;;;;;;;;;;;;;;;;4961968;28;127037;-66
2022/06/09 16:11:29;;;;;;;;;;;;;;;;;;4963967;28;107797;-66
2022/06/09 16:13:56;;;;;;;;;;;;;;;;;;4957794;28;128704;-66
2022/06/09 16:16:24;;;;;;;;;;;;;;;;;;4965941;28;107574;-66
2022/06/09 16:18:50;;;;;;;;;;;;;;;;;;4960105;28;127123;-67
2022/06/09 16:21:16;;;;;;;;;;;;;;;;;;4958883;28;137552;-67
2022/06/09 16:23:44;;;;;;;;;;;;;;;;;;4970162;28;130651;-67
2022/06/09 16:26:14;;;;;;;;;;;;;;;;;;4962311;28;135057;-67
2022/06/09 16:28:40;;;;;;;;;;;;;;;;;;4959529;28;109057;-66
2022/06/09 16:31:07;;;;;;;;;;;;;;;;;;4963495;28;129168;-67
2022/06/09 16:33:33;;;;;;;;;;;;;;;;;;4960399;28;107668;-66
2022/06/09 16:36:00;;;;;;;;;;;;;;;;;;4963225;28;130179;-66
2022/06/09 16:38:26;;;;;;;;;;;;;;;;;;4963686;28;107379;-66
2022/06/09 16:40:52;;;;;;;;;;;;;;;;;;4964784;28;138647;-66
2022/06/09 16:43:18;;;;;;;;;;;;;;;;;;4956826;28;130227;-70
2022/06/09 16:45:45;;;;;;;;;;;;;;;;;;4966363;28;123488;-66
2022/06/09 16:48:11;;;;;;;;;;;;;;;;;;4963070;28;113545;-67
2022/06/09 16:50:38;;;;;;;;;;;;;;;;;;4955947;28;116320;-67
2022/06/09 16:53:04;;;;;;;;;;;;;;;;;;4962673;28;138133;-67